sensor_id;sensor_type;location;lat;lon;timestamp;P1;durP1;ratioP1;P2;durP2;ratioP2
51987;SDS011;38003;52.012;4.346;2023-08-12T00:00:26;4.50;;;2.30;;
51987;SDS011;38003;52.012;4.346;2023-08-12T00:02:54;5.35;;;2.25;;
51987;SDS011;38003;52.012;4.346;2023-08-12T00:05:22;3.42;;;2.20;;
51987;SDS011;38003;52.012;4.346;2023-08-12T00:07:50;6.25;;;2.42;;
51987;SDS011;38003;52.012;4.346;2023-08-12T00:10:19;8.65;;;2.65;;
51987;SDS011;38003;52.012;4.346;2023-08-12T00:12:47;8.90;;;2.70;;
51987;SDS011;38003;52.012;4.346;2023-08-12T00:15:16;12.52;;;2.70;;
51987;SDS011;38003;52.012;4.346;2023-08-12T00:17:45;5.25;;;2.53;;
51987;SDS011;38003;52.012;4.346;2023-08-12T00:20:13;9.77;;;3.05;;
51987;SDS011;38003;52.012;4.346;2023-08-12T00:22:41;7.20;;;2.20;;
51987;SDS011;38003;52.012;4.346;2023-08-12T00:25:09;7.38;;;3.38;;
51987;SDS011;38003;52.012;4.346;2023-08-12T00:27:38;6.47;;;2.55;;
51987;SDS011;38003;52.012;4.346;2023-08-12T00:30:06;5.97;;;2.40;;
51987;SDS011;38003;52.012;4.346;2023-08-12T00:32:36;6.28;;;2.20;;
51987;SDS011;38003;52.012;4.346;2023-08-12T00:35:05;6.30;;;2.00;;
51987;SDS011;38003;52.012;4.346;2023-08-12T00:37:33;6.22;;;1.92;;
51987;SDS011;38003;52.012;4.346;2023-08-12T00:40:01;5.75;;;2.10;;
51987;SDS011;38003;52.012;4.346;2023-08-12T00:42:30;9.07;;;2.35;;
51987;SDS011;38003;52.012;4.346;2023-08-12T00:44:58;5.15;;;2.00;;
51987;SDS011;38003;52.012;4.346;2023-08-12T00:47:26;8.80;;;2.20;;
51987;SDS011;38003;52.012;4.346;2023-08-12T00:49:57;4.20;;;2.10;;
51987;SDS011;38003;52.012;4.346;2023-08-12T00:52:26;5.50;;;2.25;;
51987;SDS011;38003;52.012;4.346;2023-08-12T00:54:54;6.57;;;2.03;;
51987;SDS011;38003;52.012;4.346;2023-08-12T00:57:23;4.28;;;2.13;;
51987;SDS011;38003;52.012;4.346;2023-08-12T00:59:51;3.88;;;2.33;;
51987;SDS011;38003;52.012;4.346;2023-08-12T01:02:19;7.18;;;2.30;;
51987;SDS011;38003;52.012;4.346;2023-08-12T01:04:48;4.35;;;2.30;;
51987;SDS011;38003;52.012;4.346;2023-08-12T01:07:17;5.07;;;2.10;;
51987;SDS011;38003;52.012;4.346;2023-08-12T01:09:46;5.13;;;2.17;;
51987;SDS011;38003;52.012;4.346;2023-08-12T01:12:16;6.03;;;2.28;;
51987;SDS011;38003;52.012;4.346;2023-08-12T01:14:49;9.13;;;2.42;;
51987;SDS011;38003;52.012;4.346;2023-08-12T01:17:19;6.20;;;2.40;;
51987;SDS011;38003;52.012;4.346;2023-08-12T01:19:47;4.32;;;2.20;;
51987;SDS011;38003;52.012;4.346;2023-08-12T01:22:17;4.63;;;2.20;;
51987;SDS011;38003;52.012;4.346;2023-08-12T01:24:51;4.25;;;2.38;;
51987;SDS011;38003;52.012;4.346;2023-08-12T01:27:19;5.57;;;2.33;;
51987;SDS011;38003;52.012;4.346;2023-08-12T01:29:48;4.32;;;2.40;;
51987;SDS011;38003;52.012;4.346;2023-08-12T01:32:20;7.18;;;2.88;;
51987;SDS011;38003;52.012;4.346;2023-08-12T01:34:50;8.45;;;2.72;;
51987;SDS011;38003;52.012;4.346;2023-08-12T01:37:22;6.22;;;2.65;;
51987;SDS011;38003;52.012;4.346;2023-08-12T01:39:53;6.07;;;2.50;;
51987;SDS011;38003;52.012;4.346;2023-08-12T01:42:22;5.60;;;2.17;;
51987;SDS011;38003;52.012;4.346;2023-08-12T01:44:50;6.65;;;2.70;;
51987;SDS011;38003;52.012;4.346;2023-08-12T01:47:19;7.22;;;2.58;;
51987;SDS011;38003;52.012;4.346;2023-08-12T01:49:47;4.82;;;2.72;;
51987;SDS011;38003;52.012;4.346;2023-08-12T01:52:15;5.25;;;2.65;;
51987;SDS011;38003;52.012;4.346;2023-08-12T01:54:44;5.43;;;2.90;;
51987;SDS011;38003;52.012;4.346;2023-08-12T01:57:13;6.65;;;2.42;;
51987;SDS011;38003;52.012;4.346;2023-08-12T01:59:41;9.68;;;2.97;;
51987;SDS011;38003;52.012;4.346;2023-08-12T02:02:10;6.30;;;3.17;;
51987;SDS011;38003;52.012;4.346;2023-08-12T02:04:39;7.70;;;2.70;;
51987;SDS011;38003;52.012;4.346;2023-08-12T02:07:09;9.52;;;3.20;;
51987;SDS011;38003;52.012;4.346;2023-08-12T02:09:38;6.72;;;2.92;;
51987;SDS011;38003;52.012;4.346;2023-08-12T02:12:06;9.27;;;3.25;;
51987;SDS011;38003;52.012;4.346;2023-08-12T02:14:36;7.50;;;3.47;;
51987;SDS011;38003;52.012;4.346;2023-08-12T02:17:04;8.13;;;3.50;;
51987;SDS011;38003;52.012;4.346;2023-08-12T02:19:33;5.97;;;3.47;;
51987;SDS011;38003;52.012;4.346;2023-08-12T02:22:01;6.78;;;3.70;;
51987;SDS011;38003;52.012;4.346;2023-08-12T02:24:30;6.80;;;3.65;;
51987;SDS011;38003;52.012;4.346;2023-08-12T02:26:58;7.15;;;3.70;;
51987;SDS011;38003;52.012;4.346;2023-08-12T02:29:26;7.68;;;3.63;;
51987;SDS011;38003;52.012;4.346;2023-08-12T02:31:56;8.57;;;4.45;;
51987;SDS011;38003;52.012;4.346;2023-08-12T02:34:24;8.38;;;4.15;;
51987;SDS011;38003;52.012;4.346;2023-08-12T02:36:52;9.45;;;4.82;;
51987;SDS011;38003;52.012;4.346;2023-08-12T02:39:21;7.75;;;4.05;;
51987;SDS011;38003;52.012;4.346;2023-08-12T02:41:49;8.48;;;4.20;;
51987;SDS011;38003;52.012;4.346;2023-08-12T02:44:17;7.10;;;4.60;;
51987;SDS011;38003;52.012;4.346;2023-08-12T02:46:45;6.80;;;4.68;;
51987;SDS011;38003;52.012;4.346;2023-08-12T02:49:15;9.90;;;4.68;;
51987;SDS011;38003;52.012;4.346;2023-08-12T02:51:43;6.75;;;4.82;;
51987;SDS011;38003;52.012;4.346;2023-08-12T02:54:11;7.82;;;4.72;;
51987;SDS011;38003;52.012;4.346;2023-08-12T02:56:39;7.43;;;4.65;;
51987;SDS011;38003;52.012;4.346;2023-08-12T02:59:08;6.53;;;5.25;;
51987;SDS011;38003;52.012;4.346;2023-08-12T03:01:36;6.00;;;5.38;;
51987;SDS011;38003;52.012;4.346;2023-08-12T03:04:04;6.05;;;5.43;;
51987;SDS011;38003;52.012;4.346;2023-08-12T03:06:34;6.88;;;5.65;;
51987;SDS011;38003;52.012;4.346;2023-08-12T03:09:02;7.18;;;5.90;;
51987;SDS011;38003;52.012;4.346;2023-08-12T03:11:31;7.53;;;5.95;;
51987;SDS011;38003;52.012;4.346;2023-08-12T03:13:59;8.60;;;6.22;;
51987;SDS011;38003;52.012;4.346;2023-08-12T03:16:27;8.85;;;6.07;;
51987;SDS011;38003;52.012;4.346;2023-08-12T03:18:55;10.57;;;6.10;;
51987;SDS011;38003;52.012;4.346;2023-08-12T03:21:24;6.30;;;5.70;;
51987;SDS011;38003;52.012;4.346;2023-08-12T03:23:53;10.55;;;6.47;;
51987;SDS011;38003;52.012;4.346;2023-08-12T03:26:21;8.40;;;7.18;;
51987;SDS011;38003;52.012;4.346;2023-08-12T03:28:50;8.77;;;7.20;;
51987;SDS011;38003;52.012;4.346;2023-08-12T03:31:18;10.82;;;6.95;;
51987;SDS011;38003;52.012;4.346;2023-08-12T03:33:46;11.15;;;7.60;;
51987;SDS011;38003;52.012;4.346;2023-08-12T03:36:14;8.57;;;7.53;;
51987;SDS011;38003;52.012;4.346;2023-08-12T03:38:43;9.30;;;8.07;;
51987;SDS011;38003;52.012;4.346;2023-08-12T03:41:12;12.50;;;8.85;;
51987;SDS011;38003;52.012;4.346;2023-08-12T03:43:40;10.23;;;8.88;;
51987;SDS011;38003;52.012;4.346;2023-08-12T03:46:09;9.38;;;8.48;;
51987;SDS011;38003;52.012;4.346;2023-08-12T03:48:37;11.02;;;9.45;;
51987;SDS011;38003;52.012;4.346;2023-08-12T03:51:05;10.80;;;9.70;;
51987;SDS011;38003;52.012;4.346;2023-08-12T03:53:33;10.55;;;9.40;;
51987;SDS011;38003;52.012;4.346;2023-08-12T03:56:02;13.00;;;9.73;;
51987;SDS011;38003;52.012;4.346;2023-08-12T03:58:31;10.13;;;9.15;;
51987;SDS011;38003;52.012;4.346;2023-08-12T04:00:59;11.05;;;9.57;;
51987;SDS011;38003;52.012;4.346;2023-08-12T04:03:28;10.93;;;9.82;;
51987;SDS011;38003;52.012;4.346;2023-08-12T04:05:56;11.35;;;9.52;;
51987;SDS011;38003;52.012;4.346;2023-08-12T04:08:24;11.85;;;10.02;;
51987;SDS011;38003;52.012;4.346;2023-08-12T04:10:53;12.40;;;9.43;;
51987;SDS011;38003;52.012;4.346;2023-08-12T04:13:21;13.30;;;10.13;;
51987;SDS011;38003;52.012;4.346;2023-08-12T04:15:50;10.73;;;9.63;;
51987;SDS011;38003;52.012;4.346;2023-08-12T04:18:19;12.27;;;10.20;;
51987;SDS011;38003;52.012;4.346;2023-08-12T04:20:48;11.45;;;9.95;;
51987;SDS011;38003;52.012;4.346;2023-08-12T04:23:16;11.77;;;10.68;;
51987;SDS011;38003;52.012;4.346;2023-08-12T04:25:45;11.57;;;10.40;;
51987;SDS011;38003;52.012;4.346;2023-08-12T04:28:14;13.93;;;10.88;;
51987;SDS011;38003;52.012;4.346;2023-08-12T04:30:42;15.55;;;11.18;;
51987;SDS011;38003;52.012;4.346;2023-08-12T04:33:12;12.82;;;11.52;;
51987;SDS011;38003;52.012;4.346;2023-08-12T04:35:40;14.98;;;11.82;;
51987;SDS011;38003;52.012;4.346;2023-08-12T04:38:08;13.55;;;12.20;;
51987;SDS011;38003;52.012;4.346;2023-08-12T04:40:38;14.27;;;12.85;;
51987;SDS011;38003;52.012;4.346;2023-08-12T04:43:07;14.80;;;13.20;;
51987;SDS011;38003;52.012;4.346;2023-08-12T04:45:35;15.52;;;13.77;;
51987;SDS011;38003;52.012;4.346;2023-08-12T04:48:04;16.17;;;14.52;;
51987;SDS011;38003;52.012;4.346;2023-08-12T04:50:36;16.85;;;15.07;;
51987;SDS011;38003;52.012;4.346;2023-08-12T04:53:04;16.00;;;14.25;;
51987;SDS011;38003;52.012;4.346;2023-08-12T04:55:33;16.20;;;14.60;;
51987;SDS011;38003;52.012;4.346;2023-08-12T04:58:02;17.95;;;16.20;;
51987;SDS011;38003;52.012;4.346;2023-08-12T05:00:30;18.92;;;17.17;;
51987;SDS011;38003;52.012;4.346;2023-08-12T05:03:00;20.23;;;18.45;;
51987;SDS011;38003;52.012;4.346;2023-08-12T05:05:29;21.92;;;19.73;;
51987;SDS011;38003;52.012;4.346;2023-08-12T05:07:58;25.65;;;23.20;;
51987;SDS011;38003;52.012;4.346;2023-08-12T05:10:26;27.20;;;24.50;;
51987;SDS011;38003;52.012;4.346;2023-08-12T05:12:55;27.77;;;25.40;;
51987;SDS011;38003;52.012;4.346;2023-08-12T05:15:23;29.10;;;26.52;;
51987;SDS011;38003;52.012;4.346;2023-08-12T05:17:51;31.98;;;29.50;;
51987;SDS011;38003;52.012;4.346;2023-08-12T05:20:19;34.05;;;31.35;;
51987;SDS011;38003;52.012;4.346;2023-08-12T05:22:47;38.33;;;35.30;;
51987;SDS011;38003;52.012;4.346;2023-08-12T05:25:17;39.35;;;36.33;;
51987;SDS011;38003;52.012;4.346;2023-08-12T05:27:45;40.97;;;37.88;;
51987;SDS011;38003;52.012;4.346;2023-08-12T05:30:13;43.40;;;40.30;;
51987;SDS011;38003;52.012;4.346;2023-08-12T05:32:42;42.72;;;39.75;;
51987;SDS011;38003;52.012;4.346;2023-08-12T05:35:10;44.92;;;41.92;;
51987;SDS011;38003;52.012;4.346;2023-08-12T05:37:38;44.78;;;41.90;;
51987;SDS011;38003;52.012;4.346;2023-08-12T05:40:08;42.47;;;39.78;;
51987;SDS011;38003;52.012;4.346;2023-08-12T05:42:38;47.90;;;45.15;;
51987;SDS011;38003;52.012;4.346;2023-08-12T05:45:06;47.15;;;44.30;;
51987;SDS011;38003;52.012;4.346;2023-08-12T05:47:35;50.13;;;47.17;;
51987;SDS011;38003;52.012;4.346;2023-08-12T05:50:03;49.85;;;46.88;;
51987;SDS011;38003;52.012;4.346;2023-08-12T05:52:32;53.47;;;50.38;;
51987;SDS011;38003;52.012;4.346;2023-08-12T05:55:01;56.95;;;53.70;;
51987;SDS011;38003;52.012;4.346;2023-08-12T05:57:29;58.17;;;54.92;;
51987;SDS011;38003;52.012;4.346;2023-08-12T05:59:59;60.55;;;57.45;;
51987;SDS011;38003;52.012;4.346;2023-08-12T06:02:27;63.13;;;59.92;;
51987;SDS011;38003;52.012;4.346;2023-08-12T06:04:55;66.80;;;63.28;;
51987;SDS011;38003;52.012;4.346;2023-08-12T06:07:23;67.63;;;64.15;;
51987;SDS011;38003;52.012;4.346;2023-08-12T06:09:51;76.30;;;72.35;;
51987;SDS011;38003;52.012;4.346;2023-08-12T06:12:20;74.43;;;70.70;;
51987;SDS011;38003;52.012;4.346;2023-08-12T06:14:48;77.47;;;73.60;;
51987;SDS011;38003;52.012;4.346;2023-08-12T06:17:17;79.60;;;75.60;;
51987;SDS011;38003;52.012;4.346;2023-08-12T06:19:46;87.32;;;83.10;;
51987;SDS011;38003;52.012;4.346;2023-08-12T06:22:14;87.75;;;83.55;;
51987;SDS011;38003;52.012;4.346;2023-08-12T06:24:42;91.07;;;86.78;;
51987;SDS011;38003;52.012;4.346;2023-08-12T06:27:10;89.10;;;84.90;;
51987;SDS011;38003;52.012;4.346;2023-08-12T06:29:39;82.18;;;78.38;;
51987;SDS011;38003;52.012;4.346;2023-08-12T06:32:07;85.30;;;81.43;;
51987;SDS011;38003;52.012;4.346;2023-08-12T06:34:40;87.78;;;83.68;;
51987;SDS011;38003;52.012;4.346;2023-08-12T06:37:09;97.63;;;93.22;;
51987;SDS011;38003;52.012;4.346;2023-08-12T06:39:37;113.20;;;108.30;;
51987;SDS011;38003;52.012;4.346;2023-08-12T06:42:05;108.75;;;104.07;;
51987;SDS011;38003;52.012;4.346;2023-08-12T06:44:34;90.63;;;86.40;;
51987;SDS011;38003;52.012;4.346;2023-08-12T06:47:02;90.32;;;86.38;;
51987;SDS011;38003;52.012;4.346;2023-08-12T06:49:30;32.95;;;31.05;;
51987;SDS011;38003;52.012;4.346;2023-08-12T06:52:00;7.20;;;3.03;;
51987;SDS011;38003;52.012;4.346;2023-08-12T06:54:28;5.30;;;1.90;;
51987;SDS011;38003;52.012;4.346;2023-08-12T06:56:56;4.45;;;2.28;;
51987;SDS011;38003;52.012;4.346;2023-08-12T06:59:24;7.20;;;2.30;;
51987;SDS011;38003;52.012;4.346;2023-08-12T07:01:53;6.22;;;2.30;;
51987;SDS011;38003;52.012;4.346;2023-08-12T07:04:21;4.63;;;2.33;;
51987;SDS011;38003;52.012;4.346;2023-08-12T07:06:49;6.15;;;2.17;;
51987;SDS011;38003;52.012;4.346;2023-08-12T07:09:19;6.07;;;1.77;;
51987;SDS011;38003;52.012;4.346;2023-08-12T07:11:47;4.28;;;1.80;;
51987;SDS011;38003;52.012;4.346;2023-08-12T07:14:15;3.20;;;1.73;;
51987;SDS011;38003;52.012;4.346;2023-08-12T07:16:44;2.72;;;1.42;;
51987;SDS011;38003;52.012;4.346;2023-08-12T07:19:12;4.93;;;2.30;;
51987;SDS011;38003;52.012;4.346;2023-08-12T07:21:42;4.53;;;1.88;;
51987;SDS011;38003;52.012;4.346;2023-08-12T07:24:10;5.22;;;2.92;;
51987;SDS011;38003;52.012;4.346;2023-08-12T07:26:40;3.83;;;2.47;;
51987;SDS011;38003;52.012;4.346;2023-08-12T07:29:08;4.75;;;2.42;;
51987;SDS011;38003;52.012;4.346;2023-08-12T07:31:36;4.97;;;2.85;;
51987;SDS011;38003;52.012;4.346;2023-08-12T07:34:04;6.97;;;3.40;;
51987;SDS011;38003;52.012;4.346;2023-08-12T07:36:33;4.60;;;2.90;;
51987;SDS011;38003;52.012;4.346;2023-08-12T07:39:01;6.43;;;2.85;;
51987;SDS011;38003;52.012;4.346;2023-08-12T07:41:30;6.57;;;4.90;;
51987;SDS011;38003;52.012;4.346;2023-08-12T07:43:59;4.57;;;3.47;;
51987;SDS011;38003;52.012;4.346;2023-08-12T07:46:27;4.85;;;3.33;;
51987;SDS011;38003;52.012;4.346;2023-08-12T07:48:56;8.55;;;5.97;;
51987;SDS011;38003;52.012;4.346;2023-08-12T07:51:25;6.65;;;4.35;;
51987;SDS011;38003;52.012;4.346;2023-08-12T07:53:53;7.22;;;3.20;;
51987;SDS011;38003;52.012;4.346;2023-08-12T07:56:21;4.97;;;3.65;;
51987;SDS011;38003;52.012;4.346;2023-08-12T07:58:49;4.68;;;2.60;;
51987;SDS011;38003;52.012;4.346;2023-08-12T08:01:19;5.00;;;3.63;;
51987;SDS011;38003;52.012;4.346;2023-08-12T08:03:47;7.32;;;2.95;;
51987;SDS011;38003;52.012;4.346;2023-08-12T08:06:15;6.18;;;3.08;;
51987;SDS011;38003;52.012;4.346;2023-08-12T08:08:44;6.53;;;3.42;;
51987;SDS011;38003;52.012;4.346;2023-08-12T08:11:12;7.03;;;4.25;;
51987;SDS011;38003;52.012;4.346;2023-08-12T08:13:40;6.25;;;5.57;;
51987;SDS011;38003;52.012;4.346;2023-08-12T08:16:08;9.95;;;7.30;;
51987;SDS011;38003;52.012;4.346;2023-08-12T08:18:38;10.35;;;8.13;;
51987;SDS011;38003;52.012;4.346;2023-08-12T08:21:06;15.40;;;14.27;;
51987;SDS011;38003;52.012;4.346;2023-08-12T08:23:35;13.20;;;12.40;;
51987;SDS011;38003;52.012;4.346;2023-08-12T08:26:03;16.35;;;15.23;;
51987;SDS011;38003;52.012;4.346;2023-08-12T08:28:31;22.85;;;21.40;;
51987;SDS011;38003;52.012;4.346;2023-08-12T08:31:00;19.15;;;17.75;;
51987;SDS011;38003;52.012;4.346;2023-08-12T08:33:28;25.08;;;23.60;;
51987;SDS011;38003;52.012;4.346;2023-08-12T08:35:58;20.63;;;19.08;;
51987;SDS011;38003;52.012;4.346;2023-08-12T08:38:26;26.95;;;25.50;;
51987;SDS011;38003;52.012;4.346;2023-08-12T08:40:54;14.38;;;12.98;;
51987;SDS011;38003;52.012;4.346;2023-08-12T08:43:23;9.32;;;8.10;;
51987;SDS011;38003;52.012;4.346;2023-08-12T08:45:55;10.80;;;8.82;;
51987;SDS011;38003;52.012;4.346;2023-08-12T08:48:24;7.60;;;6.72;;
51987;SDS011;38003;52.012;4.346;2023-08-12T08:50:52;7.05;;;4.47;;
51987;SDS011;38003;52.012;4.346;2023-08-12T08:53:23;8.48;;;2.92;;
51987;SDS011;38003;52.012;4.346;2023-08-12T08:55:51;8.07;;;2.92;;
51987;SDS011;38003;52.012;4.346;2023-08-12T08:58:26;9.18;;;3.30;;
51987;SDS011;38003;52.012;4.346;2023-08-12T09:00:55;6.13;;;2.28;;
51987;SDS011;38003;52.012;4.346;2023-08-12T09:03:23;6.03;;;2.35;;
51987;SDS011;38003;52.012;4.346;2023-08-12T09:05:51;6.80;;;2.50;;
51987;SDS011;38003;52.012;4.346;2023-08-12T09:08:22;7.30;;;1.90;;
51987;SDS011;38003;52.012;4.346;2023-08-12T09:10:51;7.00;;;1.80;;
51987;SDS011;38003;52.012;4.346;2023-08-12T09:13:20;7.18;;;1.85;;
51987;SDS011;38003;52.012;4.346;2023-08-12T09:15:48;4.80;;;1.90;;
51987;SDS011;38003;52.012;4.346;2023-08-12T09:18:16;7.82;;;1.60;;
51987;SDS011;38003;52.012;4.346;2023-08-12T09:20:45;5.63;;;1.77;;
51987;SDS011;38003;52.012;4.346;2023-08-12T09:23:13;4.97;;;1.58;;
51987;SDS011;38003;52.012;4.346;2023-08-12T09:25:43;7.35;;;1.55;;
51987;SDS011;38003;52.012;4.346;2023-08-12T09:28:11;4.55;;;1.50;;
51987;SDS011;38003;52.012;4.346;2023-08-12T09:30:40;9.00;;;1.70;;
51987;SDS011;38003;52.012;4.346;2023-08-12T09:33:08;6.63;;;1.73;;
51987;SDS011;38003;52.012;4.346;2023-08-12T09:35:38;8.18;;;2.10;;
51987;SDS011;38003;52.012;4.346;2023-08-12T09:38:06;6.50;;;1.50;;
51987;SDS011;38003;52.012;4.346;2023-08-12T09:40:35;9.48;;;1.83;;
51987;SDS011;38003;52.012;4.346;2023-08-12T09:43:05;12.02;;;2.40;;
51987;SDS011;38003;52.012;4.346;2023-08-12T09:45:34;5.10;;;1.70;;
51987;SDS011;38003;52.012;4.346;2023-08-12T09:48:03;8.55;;;2.60;;
51987;SDS011;38003;52.012;4.346;2023-08-12T09:50:31;6.00;;;1.67;;
51987;SDS011;38003;52.012;4.346;2023-08-12T09:53:00;8.07;;;2.03;;
51987;SDS011;38003;52.012;4.346;2023-08-12T09:55:30;7.22;;;1.90;;
51987;SDS011;38003;52.012;4.346;2023-08-12T09:57:59;6.30;;;2.15;;
51987;SDS011;38003;52.012;4.346;2023-08-12T10:00:29;5.18;;;1.95;;
51987;SDS011;38003;52.012;4.346;2023-08-12T10:02:57;7.03;;;2.03;;
51987;SDS011;38003;52.012;4.346;2023-08-12T10:05:27;9.18;;;2.17;;
51987;SDS011;38003;52.012;4.346;2023-08-12T10:07:56;8.38;;;2.20;;
51987;SDS011;38003;52.012;4.346;2023-08-12T10:10:24;6.72;;;2.15;;
51987;SDS011;38003;52.012;4.346;2023-08-12T10:12:53;8.77;;;2.35;;
51987;SDS011;38003;52.012;4.346;2023-08-12T10:15:22;8.00;;;2.50;;
51987;SDS011;38003;52.012;4.346;2023-08-12T10:17:52;5.35;;;1.85;;
51987;SDS011;38003;52.012;4.346;2023-08-12T10:20:20;10.20;;;2.08;;
51987;SDS011;38003;52.012;4.346;2023-08-12T10:22:50;6.55;;;2.03;;
51987;SDS011;38003;52.012;4.346;2023-08-12T10:25:18;7.13;;;2.30;;
51987;SDS011;38003;52.012;4.346;2023-08-12T10:27:48;7.18;;;2.25;;
51987;SDS011;38003;52.012;4.346;2023-08-12T10:30:16;8.02;;;1.95;;
51987;SDS011;38003;52.012;4.346;2023-08-12T10:32:44;8.35;;;2.63;;
51987;SDS011;38003;52.012;4.346;2023-08-12T10:35:15;8.02;;;2.10;;
51987;SDS011;38003;52.012;4.346;2023-08-12T10:37:45;9.93;;;2.20;;
51987;SDS011;38003;52.012;4.346;2023-08-12T10:40:19;5.70;;;2.25;;
51987;SDS011;38003;52.012;4.346;2023-08-12T10:42:48;8.80;;;2.30;;
51987;SDS011;38003;52.012;4.346;2023-08-12T10:45:17;8.82;;;2.63;;
51987;SDS011;38003;52.012;4.346;2023-08-12T10:47:48;6.57;;;2.20;;
51987;SDS011;38003;52.012;4.346;2023-08-12T10:50:18;7.47;;;2.10;;
51987;SDS011;38003;52.012;4.346;2023-08-12T10:52:47;7.13;;;2.60;;
51987;SDS011;38003;52.012;4.346;2023-08-12T10:55:16;9.27;;;2.42;;
51987;SDS011;38003;52.012;4.346;2023-08-12T10:57:44;7.00;;;2.10;;
51987;SDS011;38003;52.012;4.346;2023-08-12T11:00:13;8.43;;;2.03;;
51987;SDS011;38003;52.012;4.346;2023-08-12T11:02:44;8.73;;;2.50;;
51987;SDS011;38003;52.012;4.346;2023-08-12T11:05:13;11.38;;;2.40;;
51987;SDS011;38003;52.012;4.346;2023-08-12T11:07:43;7.65;;;2.30;;
51987;SDS011;38003;52.012;4.346;2023-08-12T11:10:12;9.02;;;2.30;;
51987;SDS011;38003;52.012;4.346;2023-08-12T11:12:41;6.93;;;2.20;;
51987;SDS011;38003;52.012;4.346;2023-08-12T11:15:13;7.38;;;2.30;;
51987;SDS011;38003;52.012;4.346;2023-08-12T11:17:42;7.65;;;2.47;;
51987;SDS011;38003;52.012;4.346;2023-08-12T11:20:10;10.60;;;2.22;;
51987;SDS011;38003;52.012;4.346;2023-08-12T11:22:40;11.30;;;2.63;;
51987;SDS011;38003;52.012;4.346;2023-08-12T11:25:11;10.75;;;2.60;;
51987;SDS011;38003;52.012;4.346;2023-08-12T11:27:40;8.98;;;2.67;;
51987;SDS011;38003;52.012;4.346;2023-08-12T11:30:09;10.80;;;2.78;;
51987;SDS011;38003;52.012;4.346;2023-08-12T11:32:38;11.65;;;2.60;;
51987;SDS011;38003;52.012;4.346;2023-08-12T11:35:07;8.90;;;2.17;;
51987;SDS011;38003;52.012;4.346;2023-08-12T11:37:37;7.40;;;2.10;;
51987;SDS011;38003;52.012;4.346;2023-08-12T11:40:06;7.70;;;2.28;;
51987;SDS011;38003;52.012;4.346;2023-08-12T11:42:38;7.85;;;2.30;;
51987;SDS011;38003;52.012;4.346;2023-08-12T11:45:07;8.02;;;2.22;;
51987;SDS011;38003;52.012;4.346;2023-08-12T11:47:36;8.07;;;2.50;;
51987;SDS011;38003;52.012;4.346;2023-08-12T11:50:05;7.55;;;2.25;;
51987;SDS011;38003;52.012;4.346;2023-08-12T11:52:34;12.10;;;2.42;;
51987;SDS011;38003;52.012;4.346;2023-08-12T11:55:03;7.90;;;2.42;;
51987;SDS011;38003;52.012;4.346;2023-08-12T11:57:32;10.48;;;3.20;;
51987;SDS011;38003;52.012;4.346;2023-08-12T12:00:03;10.75;;;2.80;;
51987;SDS011;38003;52.012;4.346;2023-08-12T12:02:41;10.32;;;2.92;;
51987;SDS011;38003;52.012;4.346;2023-08-12T12:05:10;6.47;;;2.50;;
51987;SDS011;38003;52.012;4.346;2023-08-12T12:07:39;11.02;;;3.00;;
51987;SDS011;38003;52.012;4.346;2023-08-12T12:10:07;8.68;;;3.00;;
51987;SDS011;38003;52.012;4.346;2023-08-12T12:12:36;10.55;;;2.45;;
51987;SDS011;38003;52.012;4.346;2023-08-12T12:15:06;8.85;;;2.72;;
51987;SDS011;38003;52.012;4.346;2023-08-12T12:17:38;11.77;;;2.75;;
51987;SDS011;38003;52.012;4.346;2023-08-12T12:20:07;10.30;;;2.85;;
51987;SDS011;38003;52.012;4.346;2023-08-12T12:22:37;9.57;;;2.90;;
51987;SDS011;38003;52.012;4.346;2023-08-12T12:25:06;9.65;;;2.40;;
51987;SDS011;38003;52.012;4.346;2023-08-12T12:27:35;10.57;;;2.50;;
51987;SDS011;38003;52.012;4.346;2023-08-12T12:30:07;10.40;;;2.67;;
51987;SDS011;38003;52.012;4.346;2023-08-12T12:32:35;11.25;;;2.58;;
51987;SDS011;38003;52.012;4.346;2023-08-12T12:35:04;7.85;;;2.67;;
51987;SDS011;38003;52.012;4.346;2023-08-12T12:37:33;5.93;;;2.35;;
51987;SDS011;38003;52.012;4.346;2023-08-12T12:40:05;7.82;;;2.42;;
51987;SDS011;38003;52.012;4.346;2023-08-12T12:42:34;9.10;;;2.53;;
51987;SDS011;38003;52.012;4.346;2023-08-12T12:45:02;11.02;;;3.10;;
51987;SDS011;38003;52.012;4.346;2023-08-12T12:47:32;13.02;;;2.58;;
51987;SDS011;38003;52.012;4.346;2023-08-12T12:50:00;10.90;;;2.78;;
51987;SDS011;38003;52.012;4.346;2023-08-12T12:52:29;7.35;;;2.58;;
51987;SDS011;38003;52.012;4.346;2023-08-12T12:54:57;6.97;;;2.40;;
51987;SDS011;38003;52.012;4.346;2023-08-12T12:57:26;12.80;;;2.95;;
51987;SDS011;38003;52.012;4.346;2023-08-12T12:59:54;11.52;;;2.70;;
51987;SDS011;38003;52.012;4.346;2023-08-12T13:02:23;8.07;;;2.53;;
51987;SDS011;38003;52.012;4.346;2023-08-12T13:04:52;11.65;;;3.58;;
51987;SDS011;38003;52.012;4.346;2023-08-12T13:07:21;9.98;;;2.38;;
51987;SDS011;38003;52.012;4.346;2023-08-12T13:09:49;9.60;;;2.35;;
51987;SDS011;38003;52.012;4.346;2023-08-12T13:12:17;9.88;;;2.63;;
51987;SDS011;38003;52.012;4.346;2023-08-12T13:14:45;8.52;;;2.20;;
51987;SDS011;38003;52.012;4.346;2023-08-12T13:17:13;7.20;;;2.28;;
51987;SDS011;38003;52.012;4.346;2023-08-12T13:19:42;10.70;;;2.58;;
51987;SDS011;38003;52.012;4.346;2023-08-12T13:22:11;8.90;;;2.05;;
51987;SDS011;38003;52.012;4.346;2023-08-12T13:24:40;9.98;;;2.72;;
51987;SDS011;38003;52.012;4.346;2023-08-12T13:27:08;13.18;;;2.72;;
51987;SDS011;38003;52.012;4.346;2023-08-12T13:29:37;10.48;;;2.40;;
51987;SDS011;38003;52.012;4.346;2023-08-12T13:32:05;10.48;;;2.67;;
51987;SDS011;38003;52.012;4.346;2023-08-12T13:34:33;9.63;;;2.40;;
51987;SDS011;38003;52.012;4.346;2023-08-12T13:37:01;8.77;;;2.50;;
51987;SDS011;38003;52.012;4.346;2023-08-12T13:39:31;8.63;;;2.47;;
51987;SDS011;38003;52.012;4.346;2023-08-12T13:41:59;8.88;;;2.60;;
51987;SDS011;38003;52.012;4.346;2023-08-12T13:44:27;8.05;;;2.22;;
51987;SDS011;38003;52.012;4.346;2023-08-12T13:46:56;12.70;;;2.92;;
51987;SDS011;38003;52.012;4.346;2023-08-12T13:49:24;8.25;;;2.50;;
51987;SDS011;38003;52.012;4.346;2023-08-12T13:51:52;9.27;;;2.72;;
51987;SDS011;38003;52.012;4.346;2023-08-12T13:54:20;10.27;;;2.70;;
51987;SDS011;38003;52.012;4.346;2023-08-12T13:56:50;9.38;;;2.40;;
51987;SDS011;38003;52.012;4.346;2023-08-12T13:59:18;10.07;;;2.25;;
51987;SDS011;38003;52.012;4.346;2023-08-12T14:01:46;6.68;;;2.33;;
51987;SDS011;38003;52.012;4.346;2023-08-12T14:04:14;8.85;;;2.80;;
51987;SDS011;38003;52.012;4.346;2023-08-12T14:06:43;11.02;;;2.35;;
51987;SDS011;38003;52.012;4.346;2023-08-12T14:09:11;7.85;;;2.45;;
51987;SDS011;38003;52.012;4.346;2023-08-12T14:11:40;10.77;;;2.53;;
51987;SDS011;38003;52.012;4.346;2023-08-12T14:14:09;7.20;;;2.05;;
51987;SDS011;38003;52.012;4.346;2023-08-12T14:16:38;7.20;;;2.05;;
51987;SDS011;38003;52.012;4.346;2023-08-12T14:19:06;10.02;;;2.70;;
51987;SDS011;38003;52.012;4.346;2023-08-12T14:21:35;10.93;;;2.40;;
51987;SDS011;38003;52.012;4.346;2023-08-12T14:24:03;10.55;;;2.40;;
51987;SDS011;38003;52.012;4.346;2023-08-12T14:26:31;11.20;;;2.88;;
51987;SDS011;38003;52.012;4.346;2023-08-12T14:29:00;11.27;;;2.92;;
51987;SDS011;38003;52.012;4.346;2023-08-12T14:31:30;8.50;;;2.33;;
51987;SDS011;38003;52.012;4.346;2023-08-12T14:33:58;9.20;;;2.72;;
51987;SDS011;38003;52.012;4.346;2023-08-12T14:36:27;10.30;;;2.42;;
51987;SDS011;38003;52.012;4.346;2023-08-12T14:38:55;7.75;;;2.38;;
51987;SDS011;38003;52.012;4.346;2023-08-12T14:41:24;10.48;;;2.47;;
51987;SDS011;38003;52.012;4.346;2023-08-12T14:43:52;10.40;;;2.10;;
51987;SDS011;38003;52.012;4.346;2023-08-12T14:46:20;11.13;;;2.60;;
51987;SDS011;38003;52.012;4.346;2023-08-12T14:48:49;11.73;;;2.45;;